createdAt,value
2023-05-07T00:00:00.559Z,98.92
2023-05-07T00:01:07.249Z,98.62
2023-05-07T00:02:11.940Z,99.06
2023-05-07T00:03:28.477Z,98.28
2023-05-07T00:04:38.871Z,98.55
2023-05-07T00:05:46.414Z,98.56
2023-05-07T00:06:50.448Z,98.51
2023-05-07T00:07:59.566Z,99.04
2023-05-07T00:09:08.255Z,99.07
2023-05-07T00:10:14.029Z,99.31
2023-05-07T00:11:18.149Z,99.19
2023-05-07T00:12:22.841Z,99.04
2023-05-07T00:13:26.657Z,98.55
2023-05-07T00:14:30.693Z,99.12
2023-05-07T00:15:37.101Z,99.70
2023-05-07T00:16:41.088Z,99.22
2023-05-07T00:17:47.936Z,100.00
2023-05-07T00:18:52.003Z,100.00
2023-05-07T00:19:55.818Z,100.00
2023-05-07T00:20:59.727Z,100.00
2023-05-07T00:22:03.512Z,100.00
2023-05-07T00:23:11.391Z,100.00
2023-05-07T00:24:15.978Z,100.00
2023-05-07T00:25:21.000Z,100.00
2023-05-07T00:26:25.539Z,99.74
2023-05-07T00:27:29.584Z,99.21
2023-05-07T00:28:34.716Z,99.47
2023-05-07T00:29:38.654Z,99.79
2023-05-07T00:30:42.437Z,100.00
2023-05-07T00:31:46.758Z,100.00
2023-05-07T00:32:52.153Z,100.00
2023-05-07T00:33:56.251Z,100.00
2023-05-07T00:35:00.025Z,100.00
2023-05-07T00:36:05.587Z,100.00
2023-05-07T00:37:10.738Z,100.00
2023-05-07T00:38:14.628Z,99.98
2023-05-07T00:39:18.789Z,99.71
2023-05-07T00:40:22.782Z,99.82
2023-05-07T00:41:27.058Z,100.00
2023-05-07T00:42:33.599Z,100.00
2023-05-07T00:43:37.650Z,100.00
2023-05-07T00:44:41.761Z,100.00
2023-05-07T00:45:45.729Z,100.00
2023-05-07T00:46:51.157Z,100.00
2023-05-07T00:48:03.674Z,100.00
2023-05-07T00:49:10.155Z,100.00
2023-05-07T00:50:14.799Z,100.00
2023-05-07T00:51:19.871Z,100.00
2023-05-07T00:52:27.514Z,100.00
2023-05-07T00:53:32.223Z,100.00
2023-05-07T00:54:37.865Z,100.00
2023-05-07T00:55:42.325Z,100.00
2023-05-07T00:56:49.799Z,100.00
2023-05-07T00:57:53.774Z,100.00
2023-05-07T00:58:57.975Z,100.00
2023-05-07T01:00:02.660Z,100.00
2023-05-07T01:01:09.270Z,100.00
2023-05-07T01:02:13.515Z,100.00
2023-05-07T01:03:17.649Z,100.00
2023-05-07T01:04:22.283Z,100.00
2023-05-07T01:05:29.172Z,100.00
2023-05-07T01:06:34.901Z,100.00
2023-05-07T01:07:41.751Z,100.00
2023-05-07T01:08:48.977Z,100.00
2023-05-07T01:09:53.637Z,100.00
2023-05-07T01:11:01.801Z,100.00
2023-05-07T01:12:10.663Z,100.00
2023-05-07T01:13:17.016Z,100.00
2023-05-07T01:14:21.905Z,100.00
2023-05-07T01:15:25.886Z,100.00
2023-05-07T01:16:29.835Z,100.00
2023-05-07T01:17:44.245Z,100.00
2023-05-07T01:18:50.121Z,100.00
2023-05-07T01:19:54.592Z,100.00
2023-05-07T01:21:02.991Z,100.00
2023-05-07T01:22:15.806Z,100.00
2023-05-07T01:23:20.828Z,100.00
2023-05-07T01:24:24.921Z,100.00
2023-05-07T01:25:29.856Z,100.00
2023-05-07T01:26:33.959Z,100.00
2023-05-07T01:27:38.617Z,100.00
2023-05-07T01:28:42.771Z,100.00
2023-05-07T01:29:46.662Z,100.00
2023-05-07T01:31:00.634Z,100.00
2023-05-07T01:32:06.580Z,100.00
2023-05-07T01:33:19.703Z,100.00
2023-05-07T01:34:27.262Z,100.00
2023-05-07T01:35:38.812Z,100.00
2023-05-07T01:36:45.635Z,100.00
2023-05-07T01:37:50.937Z,100.00
2023-05-07T01:38:55.932Z,100.00
2023-05-07T01:40:01.026Z,100.00
2023-05-07T01:41:07.370Z,100.00
2023-05-07T01:42:12.427Z,100.00
2023-05-07T01:43:16.883Z,100.00
2023-05-07T01:44:21.584Z,100.00
2023-05-07T01:45:27.001Z,100.00
2023-05-07T01:46:32.925Z,100.00
2023-05-07T01:47:38.994Z,100.00
2023-05-07T01:48:47.062Z,100.00
2023-05-07T01:49:52.315Z,100.00
2023-05-07T01:50:56.963Z,100.00
2023-05-07T01:52:01.427Z,100.00
2023-05-07T01:53:05.588Z,100.00
2023-05-07T01:54:09.613Z,100.00
2023-05-07T01:55:14.784Z,100.00
2023-05-07T01:56:22.651Z,100.00
2023-05-07T01:57:26.570Z,100.00
2023-05-07T01:58:30.979Z,100.00
2023-05-07T01:59:35.487Z,100.00
2023-05-07T09:28:11.361Z,93.10
2023-05-07T09:29:19.560Z,93.07
2023-05-07T09:30:23.407Z,93.22
2023-05-07T09:31:27.300Z,93.08
2023-05-07T09:32:32.572Z,93.28
2023-05-07T09:33:36.775Z,92.93
2023-05-07T09:34:41.394Z,92.99
2023-05-07T09:35:45.294Z,93.29
2023-05-07T09:36:49.513Z,93.61
2023-05-07T09:37:56.075Z,93.23
2023-05-07T09:39:03.968Z,92.94
2023-05-07T09:40:27.630Z,93.09
2023-05-07T09:41:33.437Z,92.67
2023-05-07T09:42:37.348Z,92.50
2023-05-07T09:43:42.906Z,92.41
2023-05-07T09:44:49.243Z,92.06
2023-05-07T09:45:53.951Z,92.31
2023-05-07T09:47:01.384Z,92.29
2023-05-07T09:48:08.534Z,92.43
2023-05-07T09:49:24.567Z,92.18
2023-05-07T09:50:34.299Z,92.33
2023-05-07T09:51:51.102Z,92.53
2023-05-07T09:52:58.690Z,93.04
2023-05-07T09:54:06.055Z,93.01
2023-05-07T09:55:12.474Z,93.46
2023-05-07T09:56:19.049Z,93.48
2023-05-07T09:57:25.480Z,94.42
2023-05-07T09:58:30.596Z,94.25
2023-05-07T09:59:38.142Z,94.07
2023-05-07T10:00:43.820Z,94.12
2023-05-07T10:01:50.932Z,93.75
2023-05-07T10:03:00.334Z,93.90
2023-05-07T10:04:06.433Z,93.75
2023-05-07T10:05:18.698Z,94.01
2023-05-07T10:06:24.002Z,94.29
2023-05-07T10:07:31.209Z,93.88
2023-05-07T10:08:36.659Z,93.61
2023-05-07T10:09:43.613Z,93.91
2023-05-07T10:10:48.699Z,93.58
2023-05-07T10:11:54.219Z,93.64
2023-05-07T10:12:59.663Z,93.71
2023-05-07T10:14:07.086Z,93.37
2023-05-07T10:15:13.223Z,93.90
2023-05-07T10:16:18.681Z,93.97
2023-05-07T10:17:24.939Z,93.85
2023-05-07T10:18:33.927Z,94.70
2023-05-07T10:19:39.397Z,94.67
2023-05-07T10:20:49.065Z,94.70
2023-05-07T10:22:00.993Z,95.36
2023-05-07T10:23:07.413Z,95.28
2023-05-07T10:24:22.856Z,95.06
2023-05-07T10:25:32.884Z,95.21
2023-05-07T10:26:38.416Z,95.29
2023-05-07T10:27:45.405Z,95.38
2023-05-07T10:28:57.857Z,95.19
2023-05-07T10:30:23.553Z,94.91
2023-05-07T10:32:11.727Z,95.02
2023-05-07T10:33:21.343Z,95.18
2023-05-07T10:34:36.132Z,94.98
2023-05-07T10:35:47.897Z,94.49
2023-05-07T10:36:53.854Z,94.24
2023-05-07T10:37:57.691Z,94.28
2023-05-07T10:39:01.723Z,93.48
2023-05-07T10:40:08.206Z,94.14
2023-05-07T10:41:12.526Z,94.03
2023-05-07T10:42:19.378Z,93.71
2023-05-07T10:43:23.376Z,93.87
2023-05-07T10:44:30.869Z,94.46
2023-05-07T10:45:34.782Z,94.65
2023-05-07T10:46:38.815Z,94.44
2023-05-07T10:48:29.457Z,93.99
2023-05-07T10:49:33.892Z,93.48
2023-05-07T10:50:49.311Z,93.73
2023-05-07T10:52:18.414Z,92.90
2023-05-07T10:53:26.084Z,92.90
2023-05-07T10:54:42.614Z,92.71
2023-05-07T10:55:53.084Z,92.90
2023-05-07T10:56:57.481Z,92.55
2023-05-07T10:59:43.398Z,92.32
2023-05-07T11:00:47.561Z,92.44
2023-05-07T11:01:54.706Z,91.70
2023-05-07T11:03:01.422Z,91.93
2023-05-07T11:04:32.886Z,91.98
2023-05-07T11:05:38.498Z,92.02
2023-05-07T11:06:43.137Z,91.24
2023-05-07T11:07:57.155Z,91.73
2023-05-07T11:09:01.503Z,91.92
2023-05-07T11:10:07.524Z,92.09
2023-05-07T11:11:12.360Z,91.63
2023-05-07T11:12:37.675Z,90.97
2023-05-07T11:13:50.697Z,90.74
2023-05-07T11:14:56.180Z,90.66
2023-05-07T11:16:01.031Z,90.41
2023-05-07T11:17:09.091Z,90.52
2023-05-07T11:18:18.644Z,90.25
2023-05-07T11:19:55.562Z,90.33
2023-05-07T11:21:00.720Z,89.82
2023-05-07T11:22:09.737Z,89.69
2023-05-07T11:23:35.903Z,89.00
2023-05-07T11:24:44.074Z,89.03
2023-05-07T11:25:48.096Z,89.01
2023-05-07T11:26:56.633Z,89.12
2023-05-07T11:28:13.520Z,88.62
2023-05-07T11:29:22.651Z,88.95
2023-05-07T11:30:27.473Z,88.42
2023-05-07T11:31:31.431Z,88.46
2023-05-07T11:32:35.212Z,88.52
2023-05-07T11:33:40.153Z,88.61
2023-05-07T11:34:46.590Z,88.85
2023-05-07T11:35:51.941Z,88.72
2023-05-07T11:37:06.372Z,88.83
2023-05-07T11:38:11.111Z,89.04
2023-05-07T11:39:37.444Z,88.30
2023-05-07T11:41:00.356Z,87.92
2023-05-07T11:42:05.226Z,88.01
2023-05-07T11:43:15.836Z,87.78
2023-05-07T11:44:20.873Z,88.06
2023-05-07T11:45:32.121Z,87.89
2023-05-07T11:46:36.212Z,87.71
2023-05-07T11:47:43.651Z,87.64
2023-05-07T11:48:47.704Z,87.46
2023-05-07T11:49:54.825Z,87.39
2023-05-07T11:51:10.442Z,86.65
2023-05-07T11:52:23.114Z,86.49
2023-05-07T11:53:36.683Z,86.26
2023-05-07T11:54:40.858Z,86.46
2023-05-07T11:55:48.706Z,86.48
2023-05-07T11:56:53.222Z,86.63
2023-05-07T11:57:57.500Z,86.52
2023-05-07T11:59:01.527Z,85.98
2023-05-07T12:00:12.150Z,86.08
2023-05-07T12:01:17.805Z,86.34
2023-05-07T12:02:22.460Z,86.84
2023-05-07T12:03:28.334Z,86.64
2023-05-07T12:04:33.818Z,86.12
2023-05-07T12:05:40.747Z,86.05
2023-05-07T12:06:45.469Z,85.69
2023-05-07T12:07:57.147Z,85.99
2023-05-07T12:09:02.508Z,86.27
2023-05-07T12:10:10.571Z,85.96
2023-05-07T12:11:27.098Z,85.68
2023-05-07T12:12:31.592Z,85.53
2023-05-07T12:13:38.749Z,85.26
2023-05-07T12:14:44.957Z,85.24
2023-05-07T12:15:56.812Z,85.69
2023-05-07T12:17:11.059Z,85.73
2023-05-07T12:18:17.620Z,86.17
2023-05-07T12:19:22.986Z,86.06
2023-05-07T12:20:28.249Z,85.47
2023-05-07T12:21:35.856Z,85.73
2023-05-07T12:22:40.099Z,85.73
2023-05-07T12:23:45.677Z,85.70
2023-05-07T12:24:58.792Z,85.71
2023-05-07T12:26:04.370Z,85.64
2023-05-07T12:27:11.444Z,85.67
2023-05-07T12:28:20.282Z,86.39
2023-05-07T12:29:26.540Z,86.61
2023-05-07T12:30:30.860Z,85.87
2023-05-07T12:31:37.192Z,85.34
2023-05-07T12:32:42.299Z,85.85
2023-05-07T12:33:49.488Z,85.57
2023-05-07T12:34:53.890Z,85.12
2023-05-07T12:35:57.854Z,85.27
2023-05-07T12:37:15.345Z,84.86
2023-05-07T12:38:22.585Z,84.99
2023-05-07T12:39:26.975Z,85.16
2023-05-07T12:40:40.184Z,84.95
2023-05-07T12:42:02.851Z,84.59
2023-05-07T12:43:23.028Z,84.84
2023-05-07T12:44:36.154Z,84.76
2023-05-07T12:45:44.291Z,84.42
2023-05-07T12:46:54.002Z,84.81
2023-05-07T12:48:05.564Z,85.04
2023-05-07T12:49:14.834Z,84.39
2023-05-07T12:50:22.978Z,83.87
2023-05-07T12:51:29.561Z,84.03
2023-05-07T12:52:35.177Z,84.02
2023-05-07T12:53:45.353Z,84.30
2023-05-07T12:54:52.926Z,84.17
2023-05-07T12:56:00.054Z,84.38
2023-05-07T12:57:11.979Z,84.31
2023-05-07T12:58:42.363Z,84.06
2023-05-07T13:00:00.329Z,83.90
2023-05-07T13:01:11.799Z,84.01
2023-05-07T13:02:17.248Z,83.52
2023-05-07T13:03:32.764Z,83.80
2023-05-07T13:04:37.513Z,83.58
2023-05-07T13:05:44.598Z,83.40
2023-05-07T13:06:51.729Z,83.63
2023-05-07T13:07:57.817Z,83.63
2023-05-07T13:09:02.665Z,83.68
2023-05-07T13:10:29.886Z,83.56
2023-05-07T13:11:34.193Z,83.55
2023-05-07T13:12:38.312Z,83.19
2023-05-07T13:13:45.164Z,83.29
2023-05-07T13:14:49.486Z,82.98
2023-05-07T13:15:53.486Z,83.27
2023-05-07T13:16:57.350Z,83.16
2023-05-07T13:18:01.345Z,83.01
2023-05-07T13:19:08.960Z,83.10
2023-05-07T13:20:14.307Z,83.50
2023-05-07T13:21:18.218Z,83.77
2023-05-07T13:22:24.927Z,83.40
2023-05-07T13:23:29.972Z,82.81
2023-05-07T13:24:33.749Z,83.16
2023-05-07T13:25:39.160Z,82.58
2023-05-07T13:26:45.920Z,82.75
2023-05-07T13:28:02.690Z,82.54
2023-05-07T13:29:17.049Z,82.22
2023-05-07T13:30:21.129Z,82.17
2023-05-07T13:31:26.564Z,82.31
2023-05-07T13:32:31.503Z,82.41
2023-05-07T13:33:36.755Z,81.61
2023-05-07T13:34:40.901Z,81.49
2023-05-07T13:35:46.153Z,82.17
2023-05-07T13:36:50.142Z,82.11
2023-05-07T13:37:56.387Z,82.28
2023-05-07T13:39:05.711Z,81.99
2023-05-07T13:40:13.447Z,81.72
2023-05-07T13:41:17.710Z,81.50
2023-05-07T13:42:22.965Z,81.61
2023-05-07T13:43:27.726Z,81.49
2023-05-07T13:44:33.273Z,80.83
2023-05-07T13:45:42.275Z,81.29
2023-05-07T13:46:47.012Z,80.67
2023-05-07T13:47:51.849Z,80.63
2023-05-07T13:48:56.179Z,80.74
2023-05-07T13:50:03.024Z,80.81
2023-05-07T13:51:09.268Z,80.67
2023-05-07T13:52:13.552Z,81.06
2023-05-07T13:53:19.425Z,80.38
2023-05-07T13:54:23.849Z,80.52
2023-05-07T13:55:30.936Z,80.65
2023-05-07T13:56:34.886Z,80.85
2023-05-07T13:57:39.563Z,80.98
2023-05-07T13:58:56.294Z,80.81
2023-05-07T14:00:11.109Z,80.96
2023-05-07T14:01:15.189Z,81.35
2023-05-07T14:02:19.230Z,81.26
2023-05-07T14:03:35.010Z,81.27
2023-05-07T14:04:39.923Z,81.64
2023-05-07T14:05:44.329Z,81.98
2023-05-07T14:06:48.485Z,82.07
2023-05-07T14:07:54.965Z,82.06
2023-05-07T14:09:02.305Z,83.40
2023-05-07T14:10:08.272Z,83.20
2023-05-07T14:11:12.637Z,83.44
2023-05-07T14:12:17.138Z,83.59
2023-05-07T14:13:21.479Z,84.02
2023-05-07T14:14:30.156Z,82.47
2023-05-07T14:15:34.366Z,81.64
2023-05-07T14:16:39.712Z,82.01
2023-05-07T14:17:45.768Z,81.86
2023-05-07T14:18:52.812Z,81.57
2023-05-07T14:20:02.831Z,81.60
2023-05-07T14:21:11.358Z,81.54
2023-05-07T14:22:17.388Z,81.62
2023-05-07T14:23:28.449Z,81.83
2023-05-07T14:24:38.493Z,81.80
2023-05-07T14:25:44.869Z,81.73
2023-05-07T14:26:56.151Z,81.55
2023-05-07T14:28:00.801Z,81.42
2023-05-07T14:29:18.767Z,81.77
2023-05-07T14:30:25.786Z,81.62
2023-05-07T14:31:30.955Z,81.93
2023-05-07T14:32:36.165Z,81.95
2023-05-07T14:33:42.117Z,82.15
2023-05-07T14:34:47.347Z,81.99
2023-05-07T14:35:52.156Z,82.12
2023-05-07T14:36:56.970Z,82.31
2023-05-07T14:38:01.524Z,81.98
2023-05-07T14:39:13.741Z,82.25
2023-05-07T14:40:19.770Z,82.58
2023-05-07T14:41:24.672Z,82.31
2023-05-07T14:42:29.292Z,82.35
2023-05-07T14:43:37.382Z,82.70
2023-05-07T14:44:42.707Z,82.83
2023-05-07T14:45:49.313Z,83.06
2023-05-07T14:47:06.672Z,83.20
2023-05-07T14:48:16.442Z,83.65
2023-05-07T14:49:27.278Z,83.47
2023-05-07T14:50:34.324Z,83.48
2023-05-07T14:51:38.861Z,83.68
2023-05-07T14:52:42.921Z,84.13
2023-05-07T14:53:49.440Z,84.03
2023-05-07T14:54:54.238Z,84.28
2023-05-07T14:56:00.383Z,84.59
2023-05-07T14:57:14.776Z,84.79
2023-05-07T14:58:20.639Z,84.61
2023-05-07T14:59:27.593Z,84.52
2023-05-07T15:00:34.653Z,84.59
2023-05-07T15:01:39.333Z,84.74
2023-05-07T15:02:44.232Z,84.19
2023-05-07T15:03:49.092Z,84.38
2023-05-07T15:04:53.183Z,83.83
2023-05-07T15:05:57.090Z,84.06
2023-05-07T15:07:01.297Z,83.75
2023-05-07T15:08:07.651Z,83.63
2023-05-07T15:09:14.156Z,83.87
2023-05-07T15:10:22.248Z,84.26
2023-05-07T15:11:26.442Z,84.00
2023-05-07T15:12:30.490Z,84.01
2023-05-07T15:13:34.836Z,83.86
2023-05-07T15:14:40.324Z,83.73
2023-05-07T15:15:46.042Z,83.93
2023-05-07T15:16:51.233Z,84.12
2023-05-07T15:17:55.135Z,84.34
2023-05-07T15:18:59.717Z,84.40
2023-05-07T15:20:09.599Z,84.33
2023-05-07T15:21:14.621Z,84.54
2023-05-07T15:22:18.743Z,84.75
2023-05-07T15:23:22.707Z,84.45
2023-05-07T15:24:27.119Z,84.66
2023-05-07T15:25:36.900Z,84.72
2023-05-07T15:26:42.476Z,84.68
2023-05-07T15:27:47.274Z,85.10
2023-05-07T15:28:51.680Z,85.11
2023-05-07T15:29:55.696Z,85.98
2023-05-07T15:31:01.533Z,86.12
2023-05-07T15:32:09.899Z,86.44
2023-05-07T15:33:14.072Z,86.49
2023-05-07T15:34:17.910Z,86.50
2023-05-07T15:35:23.177Z,87.16
2023-05-07T15:36:27.051Z,87.19
2023-05-07T15:37:33.448Z,87.67
2023-05-07T15:38:37.500Z,87.66
2023-05-07T15:39:41.620Z,87.73
2023-05-07T15:40:46.147Z,87.85
2023-05-07T15:41:49.938Z,88.17
2023-05-07T15:42:57.213Z,88.58
2023-05-07T15:44:01.005Z,88.98
2023-05-07T15:45:07.341Z,88.72
2023-05-07T15:46:11.956Z,89.85
2023-05-07T15:47:16.488Z,89.74
2023-05-07T15:48:20.529Z,89.63
2023-05-07T15:49:24.734Z,89.65
2023-05-07T15:50:29.754Z,90.03
2023-05-07T15:51:36.689Z,90.37
2023-05-07T15:52:42.006Z,89.93
2023-05-07T15:53:46.807Z,90.20
2023-05-07T15:54:51.324Z,90.42
2023-05-07T15:55:55.116Z,90.19
2023-05-07T15:56:58.961Z,89.86
2023-05-07T15:58:05.847Z,90.47
2023-05-07T15:59:13.056Z,90.16
2023-05-07T16:00:18.874Z,90.03
2023-05-07T16:01:24.652Z,89.67
2023-05-07T16:02:29.879Z,89.71
2023-05-07T16:03:34.418Z,89.71
2023-05-07T16:04:38.491Z,89.62
2023-05-07T16:05:42.880Z,89.22
2023-05-07T16:06:47.623Z,89.27
2023-05-07T16:07:51.903Z,89.06
2023-05-07T16:08:57.932Z,88.79
2023-05-07T16:10:08.009Z,88.50
2023-05-07T16:11:13.289Z,88.32
2023-05-07T16:12:21.389Z,88.05
2023-05-07T16:13:26.952Z,87.95
2023-05-07T16:14:31.557Z,88.02
2023-05-07T16:15:36.118Z,87.69
2023-05-07T16:16:41.213Z,88.07
2023-05-07T16:17:49.684Z,87.87
2023-05-07T16:18:53.772Z,87.69
2023-05-07T16:19:59.306Z,87.73
2023-05-07T16:21:04.298Z,87.83
2023-05-07T16:22:13.189Z,87.54
2023-05-07T16:23:19.477Z,87.32
2023-05-07T16:24:25.306Z,87.58
2023-05-07T16:25:35.100Z,87.95
2023-05-07T16:26:39.041Z,87.89
2023-05-07T16:27:43.127Z,87.75
2023-05-07T16:28:48.194Z,87.45
2023-05-07T16:29:52.466Z,87.44
2023-05-07T16:30:57.199Z,87.62
2023-05-07T16:32:01.049Z,87.38
2023-05-07T16:33:05.751Z,87.20
2023-05-07T16:34:11.145Z,87.35
2023-05-07T16:35:15.905Z,86.99
2023-05-07T16:36:35.063Z,86.96
2023-05-07T16:37:44.281Z,87.09
2023-05-07T16:38:48.377Z,86.93
2023-05-07T16:39:52.425Z,86.75
2023-05-07T16:40:56.934Z,86.66
2023-05-07T16:42:00.602Z,86.50
2023-05-07T16:43:10.143Z,86.79
2023-05-07T16:44:14.020Z,87.04
2023-05-07T16:45:21.343Z,86.79
2023-05-07T16:46:25.752Z,87.31
2023-05-07T16:47:29.865Z,87.22
2023-05-07T16:48:33.831Z,87.25
2023-05-07T16:49:39.085Z,87.19
2023-05-07T16:50:44.660Z,87.65
2023-05-07T16:51:48.855Z,87.43
2023-05-07T16:52:53.086Z,87.63
2023-05-07T16:53:57.295Z,87.38
2023-05-07T16:55:01.785Z,87.19
2023-05-07T16:56:07.920Z,87.45
2023-05-07T16:57:14.278Z,87.65
2023-05-07T16:58:18.626Z,87.17
2023-05-07T16:59:23.503Z,87.17
2023-05-07T17:00:31.933Z,87.54
2023-05-07T17:01:42.994Z,87.04
2023-05-07T17:02:47.370Z,86.78
2023-05-07T17:03:54.502Z,87.35
2023-05-07T17:04:58.885Z,87.20
2023-05-07T17:06:03.282Z,87.24
2023-05-07T17:07:08.000Z,87.11
2023-05-07T17:08:14.101Z,87.31
2023-05-07T17:09:18.984Z,86.97
2023-05-07T17:10:24.412Z,87.12
2023-05-07T17:11:32.096Z,87.20
2023-05-07T17:12:36.137Z,87.17
2023-05-07T17:13:41.427Z,87.06
2023-05-07T17:14:45.255Z,87.20
2023-05-07T17:15:49.534Z,87.17
2023-05-07T17:16:53.875Z,87.04
2023-05-07T17:17:58.176Z,86.92
2023-05-07T17:19:03.175Z,87.64
2023-05-07T17:20:13.191Z,87.64
2023-05-07T17:21:17.164Z,87.60
2023-05-07T17:22:25.233Z,87.65
2023-05-07T17:23:29.550Z,87.51
2023-05-07T17:24:33.773Z,87.34
2023-05-07T17:25:37.964Z,87.52
2023-05-07T17:26:43.343Z,87.41
2023-05-07T17:27:47.319Z,88.13
2023-05-07T17:28:52.074Z,87.86
2023-05-07T17:29:55.722Z,87.61
2023-05-07T17:30:59.860Z,87.83
2023-05-07T17:32:04.629Z,88.05
2023-05-07T17:33:20.966Z,87.89
2023-05-07T17:34:25.652Z,87.99
2023-05-07T17:35:29.792Z,87.97
2023-05-07T17:36:33.927Z,88.13
2023-05-07T17:37:40.728Z,87.91
2023-05-07T17:38:44.935Z,87.87
2023-05-07T17:39:49.371Z,88.13
2023-05-07T17:40:53.896Z,88.08
2023-05-07T17:42:00.593Z,88.48
2023-05-07T17:43:09.104Z,87.98
2023-05-07T17:44:32.042Z,88.25
2023-05-07T17:45:38.195Z,88.71
2023-05-07T17:46:42.070Z,89.01
2023-05-07T17:47:46.319Z,88.75
2023-05-07T17:48:50.422Z,89.01
2023-05-07T17:49:54.667Z,88.91
2023-05-07T17:51:08.032Z,88.85
2023-05-07T17:52:13.580Z,88.45
2023-05-07T17:53:19.529Z,88.51
2023-05-07T17:54:27.510Z,88.29
2023-05-07T17:55:34.940Z,88.25
2023-05-07T17:56:41.169Z,88.49
2023-05-07T17:57:48.698Z,88.49
2023-05-07T17:58:59.140Z,88.50
2023-05-07T18:00:12.267Z,88.63
2023-05-07T18:01:19.678Z,88.13
2023-05-07T18:02:29.407Z,88.26
2023-05-07T18:03:34.526Z,88.11
2023-05-07T18:04:39.098Z,88.27
2023-05-07T18:05:43.285Z,88.34
2023-05-07T18:06:48.091Z,88.04
2023-05-07T18:07:52.451Z,87.96
2023-05-07T18:08:58.458Z,88.26
2023-05-07T18:10:03.286Z,88.32
2023-05-07T18:11:07.933Z,88.16
2023-05-07T18:12:12.763Z,88.51
2023-05-07T18:13:17.367Z,88.54
2023-05-07T18:14:26.430Z,88.64
2023-05-07T18:15:30.687Z,89.13
2023-05-07T18:16:35.313Z,89.05
2023-05-07T18:17:40.206Z,88.93
2023-05-07T18:18:45.562Z,88.71
2023-05-07T18:19:51.633Z,89.00
2023-05-07T18:20:58.515Z,88.60
2023-05-07T18:22:06.798Z,88.78
2023-05-07T18:23:12.021Z,88.46
2023-05-07T18:24:17.493Z,88.88
2023-05-07T18:25:22.464Z,88.61
2023-05-07T18:26:26.897Z,88.30
2023-05-07T18:27:31.795Z,88.41
2023-05-07T18:28:36.046Z,88.54
2023-05-07T18:29:41.439Z,88.20
2023-05-07T18:30:46.877Z,88.02
2023-05-07T18:31:51.048Z,87.95
2023-05-07T18:32:56.002Z,87.88
2023-05-07T18:33:59.977Z,87.97
2023-05-07T18:35:05.010Z,87.82
2023-05-07T18:36:13.391Z,87.75
2023-05-07T18:37:18.038Z,87.78
2023-05-07T18:38:22.204Z,87.68
2023-05-07T18:39:26.546Z,87.95
2023-05-07T18:40:33.447Z,87.55
2023-05-07T18:41:39.674Z,87.31
2023-05-07T18:42:44.089Z,87.72
2023-05-07T18:43:51.471Z,87.56
2023-05-07T18:44:55.627Z,87.43
2023-05-07T18:45:59.869Z,87.64
2023-05-07T18:47:08.238Z,87.73
2023-05-07T18:48:12.800Z,87.84
2023-05-07T18:49:24.967Z,88.09
2023-05-07T18:50:31.207Z,88.00
2023-05-07T18:51:35.776Z,88.25
2023-05-07T18:52:41.260Z,88.46
2023-05-07T18:53:45.213Z,88.41
2023-05-07T18:54:49.725Z,88.71
2023-05-07T18:55:54.368Z,88.44
2023-05-07T18:56:58.793Z,88.52
2023-05-07T18:58:02.530Z,88.14
2023-05-07T18:59:12.471Z,88.29
2023-05-07T19:00:17.002Z,88.75
2023-05-07T19:01:25.416Z,88.31
2023-05-07T19:02:29.530Z,88.49
2023-05-07T19:03:35.423Z,88.60
2023-05-07T19:04:39.702Z,88.48
2023-05-07T19:05:44.896Z,88.92
2023-05-07T19:06:48.848Z,88.86
2023-05-07T19:07:53.120Z,88.52
2023-05-07T19:08:57.088Z,88.62
2023-05-07T19:10:12.747Z,88.35
2023-05-07T19:11:17.100Z,88.61
2023-05-07T19:12:22.033Z,88.69
2023-05-07T19:13:27.771Z,88.60
2023-05-07T19:14:32.093Z,88.67
2023-05-07T19:15:35.919Z,88.57
2023-05-07T19:16:39.907Z,88.57
2023-05-07T19:17:43.812Z,88.70
2023-05-07T19:18:48.105Z,88.55
2023-05-07T19:19:52.340Z,88.11
2023-05-07T19:20:56.230Z,88.56
2023-05-07T19:21:59.834Z,88.22
2023-05-07T19:23:03.748Z,88.56
2023-05-07T19:24:09.391Z,88.32
2023-05-07T19:25:14.644Z,88.30
2023-05-07T19:26:19.878Z,88.41
2023-05-07T19:27:24.864Z,88.43
2023-05-07T19:28:30.306Z,88.26
2023-05-07T19:29:34.717Z,88.78
2023-05-07T19:30:40.993Z,88.84
2023-05-07T19:31:45.214Z,89.07
2023-05-07T19:32:49.669Z,88.98
2023-05-07T19:33:54.871Z,88.87
2023-05-07T19:34:58.701Z,88.71
2023-05-07T19:36:06.040Z,89.06
2023-05-07T19:37:15.791Z,89.31
2023-05-07T19:38:21.540Z,89.35
2023-05-07T19:39:25.660Z,89.13
2023-05-07T19:40:31.706Z,88.96
2023-05-07T19:41:36.124Z,89.31
2023-05-07T19:42:40.625Z,89.46
2023-05-07T19:43:46.155Z,89.16
2023-05-07T19:44:56.330Z,88.98
2023-05-07T19:46:08.194Z,89.27
2023-05-07T19:47:12.436Z,88.97
2023-05-07T19:48:24.236Z,89.25
2023-05-07T19:49:28.950Z,88.87
2023-05-07T19:50:33.007Z,88.77
2023-05-07T19:51:36.817Z,89.01
2023-05-07T19:52:48.225Z,89.01
2023-05-07T19:53:52.941Z,89.11
2023-05-07T19:54:57.322Z,88.94
2023-05-07T19:56:12.572Z,88.49
2023-05-07T19:57:17.935Z,88.52
2023-05-07T19:58:25.172Z,88.31
2023-05-07T19:59:29.510Z,88.31
2023-05-07T20:00:35.472Z,88.35
2023-05-07T20:01:41.940Z,89.37
2023-05-07T20:02:51.463Z,88.97
2023-05-07T20:03:56.499Z,89.15
2023-05-07T20:05:00.344Z,88.73
2023-05-07T20:06:05.961Z,88.54
2023-05-07T20:07:10.986Z,88.42
2023-05-07T20:08:17.818Z,88.00
2023-05-07T20:09:21.950Z,87.77
2023-05-07T20:10:26.254Z,88.01
2023-05-07T20:11:30.412Z,88.21
2023-05-07T20:12:34.355Z,87.67
2023-05-07T20:13:41.190Z,88.08
2023-05-07T20:14:46.401Z,88.59
2023-05-07T20:15:50.707Z,88.10
2023-05-07T20:16:55.236Z,88.23
2023-05-07T20:18:02.772Z,87.60
2023-05-07T20:19:11.196Z,87.86
2023-05-07T20:20:15.861Z,88.21
2023-05-07T20:21:24.845Z,88.08
2023-05-07T20:22:34.695Z,87.81
2023-05-07T20:23:38.973Z,88.01
2023-05-07T20:24:43.227Z,87.67
2023-05-07T20:25:50.519Z,87.49
2023-05-07T20:27:02.559Z,87.50
2023-05-07T20:28:10.974Z,87.88
2023-05-07T20:29:18.014Z,87.61
2023-05-07T20:30:24.543Z,87.49
2023-05-07T20:31:29.262Z,87.22
2023-05-07T20:32:33.474Z,87.40
2023-05-07T20:33:41.629Z,87.28
2023-05-07T20:34:48.867Z,87.57
2023-05-07T20:35:52.714Z,87.30
2023-05-07T20:36:57.460Z,87.16
2023-05-07T20:38:01.539Z,87.33
2023-05-07T20:39:09.355Z,87.36
2023-05-07T20:40:14.407Z,87.68
2023-05-07T20:41:21.136Z,87.45
2023-05-07T20:42:26.406Z,87.22
2023-05-07T20:43:32.890Z,87.79
2023-05-07T20:44:37.481Z,87.59
2023-05-07T20:45:49.577Z,87.84
2023-05-07T20:46:53.414Z,87.50
2023-05-07T20:47:57.441Z,87.51
2023-05-07T20:49:01.764Z,87.58
2023-05-07T20:50:13.193Z,87.59
2023-05-07T20:51:17.309Z,87.37
2023-05-07T20:52:21.544Z,87.50
2023-05-07T20:53:29.322Z,87.49
2023-05-07T20:54:33.932Z,87.66
2023-05-07T20:55:38.071Z,87.69
2023-05-07T20:56:42.184Z,87.76
2023-05-07T20:57:46.321Z,87.75
2023-05-07T20:58:50.902Z,88.01
2023-05-07T20:59:58.357Z,88.00
2023-05-07T21:01:08.249Z,87.90
2023-05-07T21:02:15.506Z,87.74
2023-05-07T21:03:21.822Z,87.38
2023-05-07T21:04:31.480Z,87.05
2023-05-07T21:05:51.820Z,87.34
2023-05-07T21:06:56.517Z,87.13
2023-05-07T21:08:00.328Z,86.94
2023-05-07T21:09:04.904Z,87.30
2023-05-07T21:10:13.279Z,87.09
2023-05-07T21:11:39.042Z,86.82
2023-05-07T21:12:45.784Z,87.13
2023-05-07T21:13:50.666Z,87.02
2023-05-07T21:14:54.362Z,87.13
2023-05-07T21:15:57.984Z,86.97
2023-05-07T21:17:01.984Z,86.88
2023-05-07T21:18:09.036Z,86.87
2023-05-07T21:19:13.345Z,86.92
2023-05-07T21:20:17.797Z,87.28
2023-05-07T21:21:21.832Z,86.91
2023-05-07T21:22:25.610Z,86.99
2023-05-07T21:23:30.033Z,86.70
2023-05-07T21:24:34.728Z,86.85
2023-05-07T21:25:41.312Z,86.85
2023-05-07T21:26:48.918Z,86.86
2023-05-07T21:27:54.689Z,86.65
2023-05-07T21:28:58.699Z,86.53
2023-05-07T21:30:08.987Z,86.28
2023-05-07T21:31:18.097Z,86.66
2023-05-07T21:32:23.252Z,86.62
2023-05-07T21:33:29.328Z,86.34
2023-05-07T21:34:33.420Z,86.39
2023-05-07T21:35:37.765Z,86.28
2023-05-07T21:36:41.731Z,86.11
2023-05-07T21:37:46.672Z,86.04
2023-05-07T21:38:50.974Z,85.95
2023-05-07T21:39:55.743Z,86.02
2023-05-07T21:40:59.691Z,86.15
2023-05-07T21:42:14.734Z,86.09
2023-05-07T21:43:20.631Z,86.22
2023-05-07T21:44:31.410Z,86.15
2023-05-07T21:45:40.321Z,85.98